Marrakech, Morocco

6:04 PM WEST on August 30, 2014 (GMT +0100)
Menara | Change Station
CLOSE
Current Station
Airport
Location: Marrakech,
Elevation: 1529 ft
Nearby Weather Stations

Elev 1529 ft 31.61 °N, 8.04 °W | Updated 34 minutes ago

Scattered Clouds
Scattered Clouds
97 °F
Feels Like 96 °F
N
7
Wind Variable Wind from East

Today
High -- | Low -- °F
--% Chance of Precip.
Yesterday
High -- | Low -- °F
Precip. -- in
7:06 AM 7:58 PM
Waxing Crescent, 23% visible
Pressure 29.98 in
Visibility 6.2 miles
Clouds Scattered Clouds 4000 ft
Scattered Clouds 4000 ft
Heat Index 96 °F
Dew Point 57 °F
Humidity 27%
Rainfall 0.00 in
Snow Depth Not available.
UV 3 out of 12
Pollen Not available.
Air Quality Not available.
Flu Activity Not available.
METAR GMMX 301630Z 09006KT 030V140 9999 SCT040 SCT040CB 36/14 Q1015 TEMPO 28016KT TS SCT040CB

More Conditions Fewer Conditions

Pressure 29.98 in
Visibility 6.2 miles
Clouds Scattered Clouds 4000 ft
Scattered Clouds 4000 ft
Heat Index 96 °F
Dew Point 57 °F
Humidity 27%
Rainfall 0.00 in
Snow Depth Not available.
UV 3 out of 12
Pollen Not available.
Air Quality Not available.
Flu Activity Not available.
METAR GMMX 301630Z 09006KT 030V140 9999 SCT040 SCT040CB 36/14 Q1015 TEMPO 28016KT TS SCT040CB

More Conditions Fewer Conditions

10-Day Weather Forecast

Almanac

Astronomy

Aug. 30, 2014 Rise Set
Actual Time 7:06 AM WEST 7:58 PM WEST
Civil Twilight 6:41 AM WEST 8:23 PM WEST
Nautical Twilight 6:12 AM WEST 8:52 PM WEST
Astronomical Twilight 5:42 AM WEST 9:22 PM WEST
Moon 11:21 AM WEST 10:44 PM WEST
Length of Visible Light 13h 41m
Length of Day
12h 52m
Tomorrow will be 1m 50s shorter.
Waxing Crescent, 23% of the Moon is Illuminated
Today
Waxing Crescent
Sep 2
First Quarter
Sep 8
Full
Sep 15
Last Quarter
Sep 24
New

Today's Extremes

Country Highs Country Lows

Community

WunderPhotos

Upload Photos

1,748,566 photos uploaded!

WunderBlogs® & News

Nearby

Snow Depth

Not available.

Earthquake Activity

City Distance Mag. Time & Date
No recent earthquake activity has been reported nearby.
Minimum magnitude displayed is 2.5.

Coastal Water Temperatures

Place Temperature
No Stations Reporting

Nearby Weather Stations